sensor_id;sensor_type;location;lat;lon;timestamp;temperature;humidity
20977;DHT22;10647;51.016;3.720;2023-03-01T00:01:56;4.20;87.40
20977;DHT22;10647;51.016;3.720;2023-03-01T00:04:24;4.20;87.50
20977;DHT22;10647;51.016;3.720;2023-03-01T00:06:51;4.20;87.60
20977;DHT22;10647;51.016;3.720;2023-03-01T00:09:19;4.20;87.70
20977;DHT22;10647;51.016;3.720;2023-03-01T00:11:47;4.10;87.70
20977;DHT22;10647;51.016;3.720;2023-03-01T00:14:14;4.10;87.90
20977;DHT22;10647;51.016;3.720;2023-03-01T00:16:45;4.10;88.10
20977;DHT22;10647;51.016;3.720;2023-03-01T00:19:15;4.00;88.20
20977;DHT22;10647;51.016;3.720;2023-03-01T00:21:44;4.00;88.60
20977;DHT22;10647;51.016;3.720;2023-03-01T00:24:12;4.00;88.70
20977;DHT22;10647;51.016;3.720;2023-03-01T00:26:39;4.00;88.90
20977;DHT22;10647;51.016;3.720;2023-03-01T00:29:07;4.00;89.40
20977;DHT22;10647;51.016;3.720;2023-03-01T00:31:35;4.00;89.80
20977;DHT22;10647;51.016;3.720;2023-03-01T00:34:04;3.90;89.80
20977;DHT22;10647;51.016;3.720;2023-03-01T00:36:35;3.90;90.00
20977;DHT22;10647;51.016;3.720;2023-03-01T00:39:07;3.90;90.10
20977;DHT22;10647;51.016;3.720;2023-03-01T00:41:38;3.90;90.20
20977;DHT22;10647;51.016;3.720;2023-03-01T00:44:06;3.90;90.40
20977;DHT22;10647;51.016;3.720;2023-03-01T00:46:34;3.90;90.50
20977;DHT22;10647;51.016;3.720;2023-03-01T00:49:01;3.90;90.60
20977;DHT22;10647;51.016;3.720;2023-03-01T00:51:32;3.90;90.70
20977;DHT22;10647;51.016;3.720;2023-03-01T00:54:01;3.90;90.80
20977;DHT22;10647;51.016;3.720;2023-03-01T00:56:29;3.90;90.90
20977;DHT22;10647;51.016;3.720;2023-03-01T00:58:57;3.80;91.10
20977;DHT22;10647;51.016;3.720;2023-03-01T01:01:29;3.80;91.30
20977;DHT22;10647;51.016;3.720;2023-03-01T01:04:02;3.80;91.40
20977;DHT22;10647;51.016;3.720;2023-03-01T01:09:19;3.80;91.90
20977;DHT22;10647;51.016;3.720;2023-03-01T01:11:52;3.80;91.90
20977;DHT22;10647;51.016;3.720;2023-03-01T01:14:18;3.70;92.10
20977;DHT22;10647;51.016;3.720;2023-03-01T01:16:45;3.70;92.40
20977;DHT22;10647;51.016;3.720;2023-03-01T01:19:13;3.70;92.60
20977;DHT22;10647;51.016;3.720;2023-03-01T01:21:47;3.70;92.70
20977;DHT22;10647;51.016;3.720;2023-03-01T01:24:20;3.70;92.90
20977;DHT22;10647;51.016;3.720;2023-03-01T01:26:50;3.60;92.90
20977;DHT22;10647;51.016;3.720;2023-03-01T01:29:20;3.60;93.10
20977;DHT22;10647;51.016;3.720;2023-03-01T01:32:07;3.60;93.20
20977;DHT22;10647;51.016;3.720;2023-03-01T01:34:35;3.60;93.60
20977;DHT22;10647;51.016;3.720;2023-03-01T01:37:03;3.60;93.70
20977;DHT22;10647;51.016;3.720;2023-03-01T01:39:32;3.60;93.90
20977;DHT22;10647;51.016;3.720;2023-03-01T01:42:01;3.60;94.10
20977;DHT22;10647;51.016;3.720;2023-03-01T01:47:20;3.50;94.30
20977;DHT22;10647;51.016;3.720;2023-03-01T01:50:04;3.50;94.40
20977;DHT22;10647;51.016;3.720;2023-03-01T01:52:34;3.40;94.40
20977;DHT22;10647;51.016;3.720;2023-03-01T01:55:20;3.40;94.60
20977;DHT22;10647;51.016;3.720;2023-03-01T01:57:56;3.40;94.70
20977;DHT22;10647;51.016;3.720;2023-03-01T02:00:22;3.40;94.90
20977;DHT22;10647;51.016;3.720;2023-03-01T02:02:54;3.40;95.00
20977;DHT22;10647;51.016;3.720;2023-03-01T02:08:12;3.30;95.10
20977;DHT22;10647;51.016;3.720;2023-03-01T02:13:37;3.20;95.40
20977;DHT22;10647;51.016;3.720;2023-03-01T02:16:24;3.30;95.70
20977;DHT22;10647;51.016;3.720;2023-03-01T02:18:58;3.30;96.20
20977;DHT22;10647;51.016;3.720;2023-03-01T02:22:02;3.20;96.00
20977;DHT22;10647;51.016;3.720;2023-03-01T02:30:25;3.10;96.40
20977;DHT22;10647;51.016;3.720;2023-03-01T02:32:54;3.00;96.30
20977;DHT22;10647;51.016;3.720;2023-03-01T02:35:24;3.10;96.40
20977;DHT22;10647;51.016;3.720;2023-03-01T02:37:52;3.00;96.80
20977;DHT22;10647;51.016;3.720;2023-03-01T02:40:22;3.00;96.60
20977;DHT22;10647;51.016;3.720;2023-03-01T02:48:41;2.90;97.00
20977;DHT22;10647;51.016;3.720;2023-03-01T02:54:20;2.90;97.30
20977;DHT22;10647;51.016;3.720;2023-03-01T02:56:47;2.90;97.70
20977;DHT22;10647;51.016;3.720;2023-03-01T02:59:18;2.90;97.80
20977;DHT22;10647;51.016;3.720;2023-03-01T03:01:46;2.90;97.90
20977;DHT22;10647;51.016;3.720;2023-03-01T03:04:15;2.90;98.20
20977;DHT22;10647;51.016;3.720;2023-03-01T03:06:45;2.90;98.40
20977;DHT22;10647;51.016;3.720;2023-03-01T03:12:02;2.90;98.70
20977;DHT22;10647;51.016;3.720;2023-03-01T03:14:30;2.90;99.00
20977;DHT22;10647;51.016;3.720;2023-03-01T03:16:59;2.80;99.10
20977;DHT22;10647;51.016;3.720;2023-03-01T03:19:32;2.80;99.20
20977;DHT22;10647;51.016;3.720;2023-03-01T03:21:59;2.80;99.70
20977;DHT22;10647;51.016;3.720;2023-03-01T03:24:28;2.80;99.90
20977;DHT22;10647;51.016;3.720;2023-03-01T03:26:57;2.80;99.90
20977;DHT22;10647;51.016;3.720;2023-03-01T03:29:25;2.80;99.90
20977;DHT22;10647;51.016;3.720;2023-03-01T03:31:53;2.80;99.90
20977;DHT22;10647;51.016;3.720;2023-03-01T03:34:26;2.80;99.90
20977;DHT22;10647;51.016;3.720;2023-03-01T03:36:55;2.80;99.90
20977;DHT22;10647;51.016;3.720;2023-03-01T03:39:25;2.80;99.90
20977;DHT22;10647;51.016;3.720;2023-03-01T03:41:54;2.80;99.90
20977;DHT22;10647;51.016;3.720;2023-03-01T03:44:22;2.70;99.90
20977;DHT22;10647;51.016;3.720;2023-03-01T03:46:50;2.70;99.90
20977;DHT22;10647;51.016;3.720;2023-03-01T03:49:17;2.70;99.90
20977;DHT22;10647;51.016;3.720;2023-03-01T03:51:45;2.70;99.90
20977;DHT22;10647;51.016;3.720;2023-03-01T03:54:19;2.70;99.90
20977;DHT22;10647;51.016;3.720;2023-03-01T03:56:46;2.70;99.90
20977;DHT22;10647;51.016;3.720;2023-03-01T03:59:14;2.70;99.90
20977;DHT22;10647;51.016;3.720;2023-03-01T04:01:42;2.70;99.90
20977;DHT22;10647;51.016;3.720;2023-03-01T04:04:17;2.70;99.90
20977;DHT22;10647;51.016;3.720;2023-03-01T04:06:45;2.60;99.90
20977;DHT22;10647;51.016;3.720;2023-03-01T04:09:14;2.60;99.90
20977;DHT22;10647;51.016;3.720;2023-03-01T04:11:45;2.70;99.90
20977;DHT22;10647;51.016;3.720;2023-03-01T04:14:13;2.70;99.90
20977;DHT22;10647;51.016;3.720;2023-03-01T04:16:41;2.70;99.90
20977;DHT22;10647;51.016;3.720;2023-03-01T04:19:08;2.70;99.90
20977;DHT22;10647;51.016;3.720;2023-03-01T04:21:36;2.60;99.90
20977;DHT22;10647;51.016;3.720;2023-03-01T04:24:04;2.60;99.90
20977;DHT22;10647;51.016;3.720;2023-03-01T04:26:33;2.60;99.90
20977;DHT22;10647;51.016;3.720;2023-03-01T04:29:00;2.60;99.90
20977;DHT22;10647;51.016;3.720;2023-03-01T04:31:28;2.60;99.90
20977;DHT22;10647;51.016;3.720;2023-03-01T04:33:56;2.60;99.90
20977;DHT22;10647;51.016;3.720;2023-03-01T04:36:26;2.60;99.90
20977;DHT22;10647;51.016;3.720;2023-03-01T04:38:55;2.60;99.90
20977;DHT22;10647;51.016;3.720;2023-03-01T04:41:24;2.60;99.90
20977;DHT22;10647;51.016;3.720;2023-03-01T04:43:58;2.60;99.90
20977;DHT22;10647;51.016;3.720;2023-03-01T04:46:26;2.60;99.90
20977;DHT22;10647;51.016;3.720;2023-03-01T04:48:54;2.60;99.90
20977;DHT22;10647;51.016;3.720;2023-03-01T04:51:21;2.50;99.90
20977;DHT22;10647;51.016;3.720;2023-03-01T04:53:50;2.50;99.90
20977;DHT22;10647;51.016;3.720;2023-03-01T04:56:18;2.50;99.90
20977;DHT22;10647;51.016;3.720;2023-03-01T04:58:46;2.50;99.90
20977;DHT22;10647;51.016;3.720;2023-03-01T05:01:16;2.50;99.90
20977;DHT22;10647;51.016;3.720;2023-03-01T05:03:51;2.50;99.90
20977;DHT22;10647;51.016;3.720;2023-03-01T05:06:20;2.50;99.90
20977;DHT22;10647;51.016;3.720;2023-03-01T05:09:06;2.50;99.90
20977;DHT22;10647;51.016;3.720;2023-03-01T05:11:34;2.50;99.90
20977;DHT22;10647;51.016;3.720;2023-03-01T05:14:03;2.50;99.90
20977;DHT22;10647;51.016;3.720;2023-03-01T05:16:31;2.50;99.90
20977;DHT22;10647;51.016;3.720;2023-03-01T05:18:59;2.50;99.90
20977;DHT22;10647;51.016;3.720;2023-03-01T05:21:27;2.50;99.90
20977;DHT22;10647;51.016;3.720;2023-03-01T05:23:54;2.50;99.90
20977;DHT22;10647;51.016;3.720;2023-03-01T05:26:22;2.50;99.90
20977;DHT22;10647;51.016;3.720;2023-03-01T05:28:51;2.50;99.90
20977;DHT22;10647;51.016;3.720;2023-03-01T05:31:18;2.50;99.90
20977;DHT22;10647;51.016;3.720;2023-03-01T05:33:46;2.50;99.90
20977;DHT22;10647;51.016;3.720;2023-03-01T05:36:13;2.50;99.90
20977;DHT22;10647;51.016;3.720;2023-03-01T05:38:41;2.50;99.90
20977;DHT22;10647;51.016;3.720;2023-03-01T05:43:50;2.50;99.90
20977;DHT22;10647;51.016;3.720;2023-03-01T05:46:20;2.40;99.90
20977;DHT22;10647;51.016;3.720;2023-03-01T05:48:58;2.40;99.90
20977;DHT22;10647;51.016;3.720;2023-03-01T05:51:26;2.40;99.90
20977;DHT22;10647;51.016;3.720;2023-03-01T05:53:53;2.40;99.90
20977;DHT22;10647;51.016;3.720;2023-03-01T05:56:21;2.30;99.90
20977;DHT22;10647;51.016;3.720;2023-03-01T05:58:54;2.30;99.90
20977;DHT22;10647;51.016;3.720;2023-03-01T06:01:23;2.30;99.90
20977;DHT22;10647;51.016;3.720;2023-03-01T06:03:51;2.30;99.90
20977;DHT22;10647;51.016;3.720;2023-03-01T06:06:19;2.20;99.90
20977;DHT22;10647;51.016;3.720;2023-03-01T06:08:52;2.20;99.90
20977;DHT22;10647;51.016;3.720;2023-03-01T06:11:21;2.20;99.90
20977;DHT22;10647;51.016;3.720;2023-03-01T06:13:49;2.20;99.90
20977;DHT22;10647;51.016;3.720;2023-03-01T06:16:17;2.20;99.90
20977;DHT22;10647;51.016;3.720;2023-03-01T06:18:44;2.10;99.90
20977;DHT22;10647;51.016;3.720;2023-03-01T06:21:12;2.10;99.90
20977;DHT22;10647;51.016;3.720;2023-03-01T06:23:40;2.10;99.90
20977;DHT22;10647;51.016;3.720;2023-03-01T06:26:08;2.10;99.90
20977;DHT22;10647;51.016;3.720;2023-03-01T06:28:36;2.10;99.90
20977;DHT22;10647;51.016;3.720;2023-03-01T06:31:04;2.10;99.90
20977;DHT22;10647;51.016;3.720;2023-03-01T06:33:33;2.10;99.90
20977;DHT22;10647;51.016;3.720;2023-03-01T06:36:04;2.10;99.90
20977;DHT22;10647;51.016;3.720;2023-03-01T06:38:32;2.10;99.90
20977;DHT22;10647;51.016;3.720;2023-03-01T06:40:59;2.10;99.90
20977;DHT22;10647;51.016;3.720;2023-03-01T06:43:27;2.10;99.90
20977;DHT22;10647;51.016;3.720;2023-03-01T06:45:55;2.10;99.90
20977;DHT22;10647;51.016;3.720;2023-03-01T06:48:23;2.20;99.90
20977;DHT22;10647;51.016;3.720;2023-03-01T06:50:50;2.20;99.90
20977;DHT22;10647;51.016;3.720;2023-03-01T06:53:18;2.20;99.90
20977;DHT22;10647;51.016;3.720;2023-03-01T06:55:46;2.30;99.90
20977;DHT22;10647;51.016;3.720;2023-03-01T06:58:14;2.30;99.90
20977;DHT22;10647;51.016;3.720;2023-03-01T07:00:41;2.40;99.90
20977;DHT22;10647;51.016;3.720;2023-03-01T07:03:10;2.50;99.90
20977;DHT22;10647;51.016;3.720;2023-03-01T07:05:38;2.50;99.90
20977;DHT22;10647;51.016;3.720;2023-03-01T07:08:06;2.50;99.90
20977;DHT22;10647;51.016;3.720;2023-03-01T07:10:33;2.60;99.90
20977;DHT22;10647;51.016;3.720;2023-03-01T07:13:01;2.70;99.90
20977;DHT22;10647;51.016;3.720;2023-03-01T07:15:31;2.70;99.90
20977;DHT22;10647;51.016;3.720;2023-03-01T07:17:59;2.80;99.90
20977;DHT22;10647;51.016;3.720;2023-03-01T07:20:27;2.90;99.90
20977;DHT22;10647;51.016;3.720;2023-03-01T07:22:55;2.90;99.90
20977;DHT22;10647;51.016;3.720;2023-03-01T07:25:30;3.00;99.90
20977;DHT22;10647;51.016;3.720;2023-03-01T07:28:00;3.00;99.90
20977;DHT22;10647;51.016;3.720;2023-03-01T07:30:29;3.10;99.90
20977;DHT22;10647;51.016;3.720;2023-03-01T07:33:11;3.20;99.90
20977;DHT22;10647;51.016;3.720;2023-03-01T07:35:47;3.20;99.90
20977;DHT22;10647;51.016;3.720;2023-03-01T07:38:14;3.30;99.90
20977;DHT22;10647;51.016;3.720;2023-03-01T07:40:42;3.40;99.90
20977;DHT22;10647;51.016;3.720;2023-03-01T07:43:11;3.40;99.90
20977;DHT22;10647;51.016;3.720;2023-03-01T07:45:44;3.50;99.90
20977;DHT22;10647;51.016;3.720;2023-03-01T07:48:15;3.50;99.90
20977;DHT22;10647;51.016;3.720;2023-03-01T07:50:42;3.60;99.90
20977;DHT22;10647;51.016;3.720;2023-03-01T07:53:12;3.70;99.90
20977;DHT22;10647;51.016;3.720;2023-03-01T07:55:40;3.70;99.90
20977;DHT22;10647;51.016;3.720;2023-03-01T07:58:09;3.80;99.90
20977;DHT22;10647;51.016;3.720;2023-03-01T08:00:47;3.90;99.90
20977;DHT22;10647;51.016;3.720;2023-03-01T08:03:17;3.90;99.90
20977;DHT22;10647;51.016;3.720;2023-03-01T08:05:44;4.00;99.90
20977;DHT22;10647;51.016;3.720;2023-03-01T08:08:12;4.10;99.90
20977;DHT22;10647;51.016;3.720;2023-03-01T08:10:40;4.10;99.90
20977;DHT22;10647;51.016;3.720;2023-03-01T08:13:12;4.20;99.90
20977;DHT22;10647;51.016;3.720;2023-03-01T08:15:45;4.30;99.90
20977;DHT22;10647;51.016;3.720;2023-03-01T08:18:28;4.30;99.90
20977;DHT22;10647;51.016;3.720;2023-03-01T08:21:07;4.40;99.90
20977;DHT22;10647;51.016;3.720;2023-03-01T08:24:11;4.50;99.90
20977;DHT22;10647;51.016;3.720;2023-03-01T08:26:45;4.60;99.90
20977;DHT22;10647;51.016;3.720;2023-03-01T08:29:12;4.60;99.90
20977;DHT22;10647;51.016;3.720;2023-03-01T08:31:40;4.70;99.90
20977;DHT22;10647;51.016;3.720;2023-03-01T08:34:11;4.70;99.90
20977;DHT22;10647;51.016;3.720;2023-03-01T08:36:41;4.80;99.90
20977;DHT22;10647;51.016;3.720;2023-03-01T08:39:11;4.90;99.90
20977;DHT22;10647;51.016;3.720;2023-03-01T08:41:39;5.00;99.90
20977;DHT22;10647;51.016;3.720;2023-03-01T08:44:07;5.00;99.90
20977;DHT22;10647;51.016;3.720;2023-03-01T08:46:39;5.20;99.90
20977;DHT22;10647;51.016;3.720;2023-03-01T08:49:10;5.20;99.90
20977;DHT22;10647;51.016;3.720;2023-03-01T08:54:26;5.40;99.90
20977;DHT22;10647;51.016;3.720;2023-03-01T08:56:53;5.40;99.90
20977;DHT22;10647;51.016;3.720;2023-03-01T08:59:21;5.40;99.90
20977;DHT22;10647;51.016;3.720;2023-03-01T09:01:48;5.50;99.90
20977;DHT22;10647;51.016;3.720;2023-03-01T09:04:16;5.50;99.90
20977;DHT22;10647;51.016;3.720;2023-03-01T09:06:43;5.60;99.90
20977;DHT22;10647;51.016;3.720;2023-03-01T09:09:17;5.70;99.90
20977;DHT22;10647;51.016;3.720;2023-03-01T09:11:43;5.70;99.90
20977;DHT22;10647;51.016;3.720;2023-03-01T09:14:13;5.80;99.90
20977;DHT22;10647;51.016;3.720;2023-03-01T09:16:41;5.90;99.90
20977;DHT22;10647;51.016;3.720;2023-03-01T09:19:09;5.90;99.90
20977;DHT22;10647;51.016;3.720;2023-03-01T09:21:38;6.00;99.80
20977;DHT22;10647;51.016;3.720;2023-03-01T09:24:06;6.00;99.70
20977;DHT22;10647;51.016;3.720;2023-03-01T09:26:34;6.10;99.50
20977;DHT22;10647;51.016;3.720;2023-03-01T09:29:01;6.20;99.50
20977;DHT22;10647;51.016;3.720;2023-03-01T09:31:29;6.30;99.40
20977;DHT22;10647;51.016;3.720;2023-03-01T09:33:57;6.30;99.30
20977;DHT22;10647;51.016;3.720;2023-03-01T09:36:24;6.40;99.10
20977;DHT22;10647;51.016;3.720;2023-03-01T09:38:53;6.40;98.60
20977;DHT22;10647;51.016;3.720;2023-03-01T09:41:44;6.40;98.40
20977;DHT22;10647;51.016;3.720;2023-03-01T09:47:34;6.50;98.10
20977;DHT22;10647;51.016;3.720;2023-03-01T09:50:19;6.50;97.70
20977;DHT22;10647;51.016;3.720;2023-03-01T09:52:59;6.60;97.70
20977;DHT22;10647;51.016;3.720;2023-03-01T09:55:37;6.60;97.50
20977;DHT22;10647;51.016;3.720;2023-03-01T09:58:47;6.60;97.30
20977;DHT22;10647;51.016;3.720;2023-03-01T10:01:44;6.70;97.20
20977;DHT22;10647;51.016;3.720;2023-03-01T10:04:38;6.70;97.10
20977;DHT22;10647;51.016;3.720;2023-03-01T10:07:53;6.80;96.90
20977;DHT22;10647;51.016;3.720;2023-03-01T10:10:32;6.80;97.00
20977;DHT22;10647;51.016;3.720;2023-03-01T10:12:55;6.90;96.60
20977;DHT22;10647;51.016;3.720;2023-03-01T10:15:34;7.00;96.80
20977;DHT22;10647;51.016;3.720;2023-03-01T10:18:12;7.10;96.50
20977;DHT22;10647;51.016;3.720;2023-03-01T10:20:50;7.10;96.10
20977;DHT22;10647;51.016;3.720;2023-03-01T10:23:15;7.20;95.80
20977;DHT22;10647;51.016;3.720;2023-03-01T10:25:52;7.20;95.40
20977;DHT22;10647;51.016;3.720;2023-03-01T10:28:20;7.30;95.30
20977;DHT22;10647;51.016;3.720;2023-03-01T10:30:46;7.30;95.00
20977;DHT22;10647;51.016;3.720;2023-03-01T10:36:03;7.50;95.00
20977;DHT22;10647;51.016;3.720;2023-03-01T10:38:33;7.60;94.70
20977;DHT22;10647;51.016;3.720;2023-03-01T10:43:54;7.70;94.00
20977;DHT22;10647;51.016;3.720;2023-03-01T10:46:33;7.80;93.70
20977;DHT22;10647;51.016;3.720;2023-03-01T10:49:22;7.80;93.40
20977;DHT22;10647;51.016;3.720;2023-03-01T10:51:53;7.90;93.30
20977;DHT22;10647;51.016;3.720;2023-03-01T10:57:33;8.00;92.80
20977;DHT22;10647;51.016;3.720;2023-03-01T11:00:24;7.90;92.70
20977;DHT22;10647;51.016;3.720;2023-03-01T11:03:16;8.00;92.30
20977;DHT22;10647;51.016;3.720;2023-03-01T11:05:59;8.10;92.30
20977;DHT22;10647;51.016;3.720;2023-03-01T11:08:38;8.10;92.40
20977;DHT22;10647;51.016;3.720;2023-03-01T11:11:29;8.20;92.30
20977;DHT22;10647;51.016;3.720;2023-03-01T11:14:01;8.20;92.20
20977;DHT22;10647;51.016;3.720;2023-03-01T11:16:35;8.30;92.30
20977;DHT22;10647;51.016;3.720;2023-03-01T11:21:50;8.40;91.90
20977;DHT22;10647;51.016;3.720;2023-03-01T11:24:19;8.40;91.70
20977;DHT22;10647;51.016;3.720;2023-03-01T11:26:53;8.40;91.70
20977;DHT22;10647;51.016;3.720;2023-03-01T11:29:38;8.40;91.40
20977;DHT22;10647;51.016;3.720;2023-03-01T11:32:08;8.50;91.40
20977;DHT22;10647;51.016;3.720;2023-03-01T11:35:27;8.50;91.20
20977;DHT22;10647;51.016;3.720;2023-03-01T11:38:19;8.60;91.10
20977;DHT22;10647;51.016;3.720;2023-03-01T11:40:52;8.60;90.60
20977;DHT22;10647;51.016;3.720;2023-03-01T11:43:50;8.60;90.40
20977;DHT22;10647;51.016;3.720;2023-03-01T11:49:46;8.60;90.10
20977;DHT22;10647;51.016;3.720;2023-03-01T11:54:51;8.70;89.90
20977;DHT22;10647;51.016;3.720;2023-03-01T12:00:57;8.90;90.00
20977;DHT22;10647;51.016;3.720;2023-03-01T12:37:42;9.60;86.60
20977;DHT22;10647;51.016;3.720;2023-03-01T12:43:36;9.60;85.80
20977;DHT22;10647;51.016;3.720;2023-03-01T12:49:10;9.70;85.60
20977;DHT22;10647;51.016;3.720;2023-03-01T12:51:40;9.70;84.70
20977;DHT22;10647;51.016;3.720;2023-03-01T12:54:29;9.80;84.10
20977;DHT22;10647;51.016;3.720;2023-03-01T13:00:06;10.00;83.70
20977;DHT22;10647;51.016;3.720;2023-03-01T13:02:35;9.90;83.60
20977;DHT22;10647;51.016;3.720;2023-03-01T13:05:22;10.00;83.80
20977;DHT22;10647;51.016;3.720;2023-03-01T13:08:29;10.10;83.40
20977;DHT22;10647;51.016;3.720;2023-03-01T13:16:54;15.60;77.20
20977;DHT22;10647;51.016;3.720;2023-03-01T13:22:29;18.50;68.70
20977;DHT22;10647;51.016;3.720;2023-03-01T13:25:17;19.40;64.20
20977;DHT22;10647;51.016;3.720;2023-03-01T13:27:46;20.10;61.30
20977;DHT22;10647;51.016;3.720;2023-03-01T13:41:55;22.80;53.90
20977;DHT22;10647;51.016;3.720;2023-03-01T13:47:00;23.40;50.90
20977;DHT22;10647;51.016;3.720;2023-03-01T13:52:36;23.60;49.20
20977;DHT22;10647;51.016;3.720;2023-03-01T13:55:17;23.60;48.50
20977;DHT22;10647;51.016;3.720;2023-03-01T13:57:49;23.60;47.70
20977;DHT22;10647;51.016;3.720;2023-03-01T14:00:39;23.70;47.80
20977;DHT22;10647;51.016;3.720;2023-03-01T14:05:43;24.30;46.70
20977;DHT22;10647;51.016;3.720;2023-03-01T14:08:22;24.30;46.30
20977;DHT22;10647;51.016;3.720;2023-03-01T14:10:57;24.60;46.50
20977;DHT22;10647;51.016;3.720;2023-03-01T14:16:44;24.60;45.50
20977;DHT22;10647;51.016;3.720;2023-03-01T14:19:19;24.80;45.20
20977;DHT22;10647;51.016;3.720;2023-03-01T14:21:43;25.20;45.10
20977;DHT22;10647;51.016;3.720;2023-03-01T14:24:20;25.50;44.70
20977;DHT22;10647;51.016;3.720;2023-03-01T14:26:49;25.60;43.80
20977;DHT22;10647;51.016;3.720;2023-03-01T14:29:37;25.20;43.80
20977;DHT22;10647;51.016;3.720;2023-03-01T14:32:24;25.10;44.20
20977;DHT22;10647;51.016;3.720;2023-03-01T14:34:50;25.00;44.20
20977;DHT22;10647;51.016;3.720;2023-03-01T14:37:20;25.10;44.50
20977;DHT22;10647;51.016;3.720;2023-03-01T14:39:49;25.40;44.10
20977;DHT22;10647;51.016;3.720;2023-03-01T14:42:17;25.30;43.60
20977;DHT22;10647;51.016;3.720;2023-03-01T14:44:47;25.20;43.40
20977;DHT22;10647;51.016;3.720;2023-03-01T14:47:34;25.30;43.90
20977;DHT22;10647;51.016;3.720;2023-03-01T14:50:09;25.40;43.80
20977;DHT22;10647;51.016;3.720;2023-03-01T14:52:40;24.90;43.10
20977;DHT22;10647;51.016;3.720;2023-03-01T14:55:16;24.90;43.30
20977;DHT22;10647;51.016;3.720;2023-03-01T14:57:49;24.80;43.00
20977;DHT22;10647;51.016;3.720;2023-03-01T15:00:24;25.00;43.40
20977;DHT22;10647;51.016;3.720;2023-03-01T15:02:53;24.80;43.00
20977;DHT22;10647;51.016;3.720;2023-03-01T15:05:32;24.80;43.30
20977;DHT22;10647;51.016;3.720;2023-03-01T15:08:02;24.90;43.20
20977;DHT22;10647;51.016;3.720;2023-03-01T15:10:34;24.70;43.00
20977;DHT22;10647;51.016;3.720;2023-03-01T15:13:13;24.60;42.90
20977;DHT22;10647;51.016;3.720;2023-03-01T15:15:45;24.40;43.20
20977;DHT22;10647;51.016;3.720;2023-03-01T15:18:27;24.00;43.60
20977;DHT22;10647;51.016;3.720;2023-03-01T15:21:04;23.50;43.80
20977;DHT22;10647;51.016;3.720;2023-03-01T15:23:30;23.30;44.50
20977;DHT22;10647;51.016;3.720;2023-03-01T15:25:58;23.00;44.70
20977;DHT22;10647;51.016;3.720;2023-03-01T15:28:36;22.40;44.90
20977;DHT22;10647;51.016;3.720;2023-03-01T15:31:20;21.50;45.40
20977;DHT22;10647;51.016;3.720;2023-03-01T15:33:49;20.80;46.40
20977;DHT22;10647;51.016;3.720;2023-03-01T15:36:46;20.10;47.10
20977;DHT22;10647;51.016;3.720;2023-03-01T15:41:57;19.00;48.60
20977;DHT22;10647;51.016;3.720;2023-03-01T15:44:33;18.00;49.40
20977;DHT22;10647;51.016;3.720;2023-03-01T15:47:04;17.00;50.40
20977;DHT22;10647;51.016;3.720;2023-03-01T15:49:44;16.40;51.50
20977;DHT22;10647;51.016;3.720;2023-03-01T15:52:19;16.00;52.40
20977;DHT22;10647;51.016;3.720;2023-03-01T15:55:06;15.40;53.10
20977;DHT22;10647;51.016;3.720;2023-03-01T15:57:34;14.90;54.20
20977;DHT22;10647;51.016;3.720;2023-03-01T16:00:02;14.50;54.90
20977;DHT22;10647;51.016;3.720;2023-03-01T16:02:32;14.50;55.30
20977;DHT22;10647;51.016;3.720;2023-03-01T16:04:59;14.10;55.90
20977;DHT22;10647;51.016;3.720;2023-03-01T16:07:27;14.00;56.40
20977;DHT22;10647;51.016;3.720;2023-03-01T16:09:54;13.90;56.90
20977;DHT22;10647;51.016;3.720;2023-03-01T16:12:21;13.90;57.20
20977;DHT22;10647;51.016;3.720;2023-03-01T16:14:50;13.90;57.50
20977;DHT22;10647;51.016;3.720;2023-03-01T16:17:19;13.90;57.50
20977;DHT22;10647;51.016;3.720;2023-03-01T16:19:47;13.80;57.50
20977;DHT22;10647;51.016;3.720;2023-03-01T16:22:14;14.00;57.60
20977;DHT22;10647;51.016;3.720;2023-03-01T16:24:42;14.00;57.60
20977;DHT22;10647;51.016;3.720;2023-03-01T16:27:09;13.90;57.80
20977;DHT22;10647;51.016;3.720;2023-03-01T16:29:37;13.70;57.80
20977;DHT22;10647;51.016;3.720;2023-03-01T16:32:04;13.50;58.20
20977;DHT22;10647;51.016;3.720;2023-03-01T16:34:35;13.10;58.60
20977;DHT22;10647;51.016;3.720;2023-03-01T16:37:03;12.80;59.10
20977;DHT22;10647;51.016;3.720;2023-03-01T16:39:34;12.50;59.60
20977;DHT22;10647;51.016;3.720;2023-03-01T16:42:01;12.30;60.10
20977;DHT22;10647;51.016;3.720;2023-03-01T16:44:29;12.00;60.60
20977;DHT22;10647;51.016;3.720;2023-03-01T16:46:57;11.80;61.60
20977;DHT22;10647;51.016;3.720;2023-03-01T16:49:24;11.70;61.90
20977;DHT22;10647;51.016;3.720;2023-03-01T16:51:53;11.60;62.20
20977;DHT22;10647;51.016;3.720;2023-03-01T16:54:21;11.40;62.60
20977;DHT22;10647;51.016;3.720;2023-03-01T16:56:48;11.20;62.90
20977;DHT22;10647;51.016;3.720;2023-03-01T16:59:16;11.10;63.40
20977;DHT22;10647;51.016;3.720;2023-03-01T17:01:45;11.00;63.70
20977;DHT22;10647;51.016;3.720;2023-03-01T17:04:13;10.90;64.20
20977;DHT22;10647;51.016;3.720;2023-03-01T17:06:41;10.70;64.60
20977;DHT22;10647;51.016;3.720;2023-03-01T17:09:08;10.60;64.90
20977;DHT22;10647;51.016;3.720;2023-03-01T17:11:36;10.50;65.10
20977;DHT22;10647;51.016;3.720;2023-03-01T17:14:04;10.40;65.20
20977;DHT22;10647;51.016;3.720;2023-03-01T17:16:31;10.30;65.50
20977;DHT22;10647;51.016;3.720;2023-03-01T17:18:59;10.20;66.00
20977;DHT22;10647;51.016;3.720;2023-03-01T17:21:27;10.10;66.30
20977;DHT22;10647;51.016;3.720;2023-03-01T17:23:58;10.00;66.50
20977;DHT22;10647;51.016;3.720;2023-03-01T17:26:25;9.90;66.90
20977;DHT22;10647;51.016;3.720;2023-03-01T17:28:55;9.70;67.00
20977;DHT22;10647;51.016;3.720;2023-03-01T17:31:24;9.70;67.30
20977;DHT22;10647;51.016;3.720;2023-03-01T17:33:53;9.60;67.60
20977;DHT22;10647;51.016;3.720;2023-03-01T17:36:21;9.50;67.80
20977;DHT22;10647;51.016;3.720;2023-03-01T17:38:49;9.30;68.10
20977;DHT22;10647;51.016;3.720;2023-03-01T17:41:18;9.30;68.20
20977;DHT22;10647;51.016;3.720;2023-03-01T17:43:47;9.20;68.30
20977;DHT22;10647;51.016;3.720;2023-03-01T17:46:14;9.20;68.60
20977;DHT22;10647;51.016;3.720;2023-03-01T17:48:42;9.10;68.60
20977;DHT22;10647;51.016;3.720;2023-03-01T17:51:11;9.00;69.00
20977;DHT22;10647;51.016;3.720;2023-03-01T17:53:39;8.90;69.10
20977;DHT22;10647;51.016;3.720;2023-03-01T17:56:06;8.90;69.20
20977;DHT22;10647;51.016;3.720;2023-03-01T17:58:35;8.80;69.40
20977;DHT22;10647;51.016;3.720;2023-03-01T18:01:10;8.70;69.60
20977;DHT22;10647;51.016;3.720;2023-03-01T18:03:42;8.70;70.00
20977;DHT22;10647;51.016;3.720;2023-03-01T18:06:21;8.60;70.10
20977;DHT22;10647;51.016;3.720;2023-03-01T18:09:08;8.50;70.40
20977;DHT22;10647;51.016;3.720;2023-03-01T18:11:37;8.50;71.00
20977;DHT22;10647;51.016;3.720;2023-03-01T18:14:05;8.40;71.00
20977;DHT22;10647;51.016;3.720;2023-03-01T18:16:32;8.30;71.10
20977;DHT22;10647;51.016;3.720;2023-03-01T18:19:00;8.30;71.30
20977;DHT22;10647;51.016;3.720;2023-03-01T18:21:29;8.30;71.40
20977;DHT22;10647;51.016;3.720;2023-03-01T18:23:56;8.20;71.80
20977;DHT22;10647;51.016;3.720;2023-03-01T18:26:26;8.20;71.90
20977;DHT22;10647;51.016;3.720;2023-03-01T18:28:55;8.10;72.00